sensor_id;sensor_type;location;lat;lon;timestamp;P1;durP1;ratioP1;P2;durP2;ratioP2
317;SDS011;146;53.448;10.228;2023-05-17T00:00:52;8.80;;;4.57;;
317;SDS011;146;53.448;10.228;2023-05-17T00:03:22;9.57;;;5.00;;
317;SDS011;146;53.448;10.228;2023-05-17T00:05:55;8.63;;;5.23;;
317;SDS011;146;53.448;10.228;2023-05-17T00:08:24;12.30;;;4.83;;
317;SDS011;146;53.448;10.228;2023-05-17T00:10:53;11.70;;;4.47;;
317;SDS011;146;53.448;10.228;2023-05-17T00:13:20;10.20;;;5.27;;
317;SDS011;146;53.448;10.228;2023-05-17T00:15:49;8.20;;;4.43;;
317;SDS011;146;53.448;10.228;2023-05-17T00:18:19;12.80;;;5.07;;
317;SDS011;146;53.448;10.228;2023-05-17T00:20:48;8.93;;;4.17;;
317;SDS011;146;53.448;10.228;2023-05-17T00:23:16;10.70;;;4.30;;
317;SDS011;146;53.448;10.228;2023-05-17T00:25:47;6.37;;;3.90;;
317;SDS011;146;53.448;10.228;2023-05-17T00:28:13;7.57;;;4.70;;
317;SDS011;146;53.448;10.228;2023-05-17T00:30:43;8.13;;;3.87;;
317;SDS011;146;53.448;10.228;2023-05-17T00:33:16;13.40;;;6.13;;
317;SDS011;146;53.448;10.228;2023-05-17T00:35:48;9.83;;;3.83;;
317;SDS011;146;53.448;10.228;2023-05-17T00:38:18;10.97;;;4.20;;
317;SDS011;146;53.448;10.228;2023-05-17T00:40:46;6.93;;;3.93;;
317;SDS011;146;53.448;10.228;2023-05-17T00:43:14;11.30;;;4.23;;
317;SDS011;146;53.448;10.228;2023-05-17T00:45:44;11.27;;;4.43;;
317;SDS011;146;53.448;10.228;2023-05-17T00:48:12;7.60;;;4.27;;
317;SDS011;146;53.448;10.228;2023-05-17T00:50:40;5.43;;;3.80;;
317;SDS011;146;53.448;10.228;2023-05-17T00:53:10;10.43;;;4.63;;
317;SDS011;146;53.448;10.228;2023-05-17T00:55:52;8.57;;;3.53;;
317;SDS011;146;53.448;10.228;2023-05-17T00:58:22;8.70;;;3.70;;
317;SDS011;146;53.448;10.228;2023-05-17T01:00:50;13.90;;;4.07;;
317;SDS011;146;53.448;10.228;2023-05-17T01:03:23;9.73;;;3.80;;
317;SDS011;146;53.448;10.228;2023-05-17T01:05:52;11.53;;;4.30;;
317;SDS011;146;53.448;10.228;2023-05-17T01:08:21;6.97;;;3.17;;
317;SDS011;146;53.448;10.228;2023-05-17T01:10:56;7.90;;;3.87;;
317;SDS011;146;53.448;10.228;2023-05-17T01:13:51;10.93;;;3.63;;
317;SDS011;146;53.448;10.228;2023-05-17T01:16:29;6.77;;;3.93;;
317;SDS011;146;53.448;10.228;2023-05-17T01:19:01;9.80;;;3.70;;
317;SDS011;146;53.448;10.228;2023-05-17T01:21:45;10.13;;;3.70;;
317;SDS011;146;53.448;10.228;2023-05-17T01:24:24;17.20;;;4.07;;
317;SDS011;146;53.448;10.228;2023-05-17T01:27:02;7.17;;;3.30;;
317;SDS011;146;53.448;10.228;2023-05-17T01:29:41;7.03;;;3.17;;
317;SDS011;146;53.448;10.228;2023-05-17T01:32:09;12.67;;;4.20;;
317;SDS011;146;53.448;10.228;2023-05-17T01:34:38;8.93;;;3.40;;
317;SDS011;146;53.448;10.228;2023-05-17T01:37:17;5.87;;;3.53;;
317;SDS011;146;53.448;10.228;2023-05-17T01:39:44;12.93;;;4.97;;
317;SDS011;146;53.448;10.228;2023-05-17T01:42:19;10.43;;;3.83;;
317;SDS011;146;53.448;10.228;2023-05-17T01:44:55;7.07;;;4.40;;
317;SDS011;146;53.448;10.228;2023-05-17T01:47:29;9.70;;;3.40;;
317;SDS011;146;53.448;10.228;2023-05-17T01:50:04;10.30;;;3.40;;
317;SDS011;146;53.448;10.228;2023-05-17T01:52:41;7.83;;;3.17;;
317;SDS011;146;53.448;10.228;2023-05-17T01:55:24;8.57;;;3.53;;
317;SDS011;146;53.448;10.228;2023-05-17T01:58:24;9.13;;;4.90;;
317;SDS011;146;53.448;10.228;2023-05-17T02:00:51;11.60;;;3.90;;
317;SDS011;146;53.448;10.228;2023-05-17T02:03:23;9.73;;;3.43;;
317;SDS011;146;53.448;10.228;2023-05-17T02:05:56;8.20;;;3.70;;
317;SDS011;146;53.448;10.228;2023-05-17T02:08:23;7.97;;;2.93;;
317;SDS011;146;53.448;10.228;2023-05-17T02:10:57;7.13;;;3.07;;
317;SDS011;146;53.448;10.228;2023-05-17T02:13:25;16.20;;;5.17;;
317;SDS011;146;53.448;10.228;2023-05-17T02:16:00;6.30;;;3.17;;
317;SDS011;146;53.448;10.228;2023-05-17T02:18:30;11.30;;;4.53;;
317;SDS011;146;53.448;10.228;2023-05-17T02:21:04;4.30;;;2.33;;
317;SDS011;146;53.448;10.228;2023-05-17T02:23:33;9.50;;;3.20;;
317;SDS011;146;53.448;10.228;2023-05-17T02:26:03;10.10;;;2.80;;
317;SDS011;146;53.448;10.228;2023-05-17T02:28:34;5.90;;;2.73;;
317;SDS011;146;53.448;10.228;2023-05-17T02:31:00;9.17;;;4.17;;
317;SDS011;146;53.448;10.228;2023-05-17T02:33:27;9.20;;;3.00;;
317;SDS011;146;53.448;10.228;2023-05-17T02:35:54;11.00;;;2.80;;
317;SDS011;146;53.448;10.228;2023-05-17T02:38:21;6.60;;;2.73;;
317;SDS011;146;53.448;10.228;2023-05-17T02:40:57;10.53;;;3.03;;
317;SDS011;146;53.448;10.228;2023-05-17T02:43:24;8.27;;;2.73;;
317;SDS011;146;53.448;10.228;2023-05-17T02:45:52;9.73;;;3.27;;
317;SDS011;146;53.448;10.228;2023-05-17T02:48:25;6.80;;;2.80;;
317;SDS011;146;53.448;10.228;2023-05-17T02:50:51;5.70;;;2.47;;
317;SDS011;146;53.448;10.228;2023-05-17T02:53:21;7.40;;;1.90;;
317;SDS011;146;53.448;10.228;2023-05-17T02:55:51;4.37;;;2.43;;
317;SDS011;146;53.448;10.228;2023-05-17T02:58:21;4.37;;;1.50;;
317;SDS011;146;53.448;10.228;2023-05-17T03:00:48;2.83;;;2.10;;
317;SDS011;146;53.448;10.228;2023-05-17T03:03:19;5.67;;;2.10;;
317;SDS011;146;53.448;10.228;2023-05-17T03:05:49;7.43;;;2.47;;
317;SDS011;146;53.448;10.228;2023-05-17T03:08:19;5.10;;;1.80;;
317;SDS011;146;53.448;10.228;2023-05-17T03:10:48;6.23;;;1.83;;
317;SDS011;146;53.448;10.228;2023-05-17T03:13:15;7.00;;;2.13;;
317;SDS011;146;53.448;10.228;2023-05-17T03:15:51;6.23;;;2.63;;
317;SDS011;146;53.448;10.228;2023-05-17T03:18:25;5.87;;;2.33;;
317;SDS011;146;53.448;10.228;2023-05-17T03:20:54;4.73;;;1.93;;
317;SDS011;146;53.448;10.228;2023-05-17T03:23:21;7.73;;;1.90;;
317;SDS011;146;53.448;10.228;2023-05-17T03:25:48;3.57;;;1.73;;
317;SDS011;146;53.448;10.228;2023-05-17T03:28:17;7.70;;;2.17;;
317;SDS011;146;53.448;10.228;2023-05-17T03:30:44;8.97;;;2.00;;
317;SDS011;146;53.448;10.228;2023-05-17T03:33:18;7.93;;;2.67;;
317;SDS011;146;53.448;10.228;2023-05-17T03:35:46;3.40;;;1.73;;
317;SDS011;146;53.448;10.228;2023-05-17T03:38:13;7.30;;;2.30;;
317;SDS011;146;53.448;10.228;2023-05-17T03:40:39;6.43;;;2.40;;
317;SDS011;146;53.448;10.228;2023-05-17T03:43:09;9.53;;;3.07;;
317;SDS011;146;53.448;10.228;2023-05-17T03:45:36;3.70;;;1.90;;
317;SDS011;146;53.448;10.228;2023-05-17T03:48:06;4.57;;;2.10;;
317;SDS011;146;53.448;10.228;2023-05-17T03:50:35;6.00;;;1.90;;
317;SDS011;146;53.448;10.228;2023-05-17T03:53:04;8.43;;;1.80;;
317;SDS011;146;53.448;10.228;2023-05-17T03:55:31;6.63;;;2.30;;
317;SDS011;146;53.448;10.228;2023-05-17T03:57:58;3.90;;;1.90;;
317;SDS011;146;53.448;10.228;2023-05-17T04:00:27;3.20;;;1.83;;
317;SDS011;146;53.448;10.228;2023-05-17T04:02:53;11.47;;;2.47;;
317;SDS011;146;53.448;10.228;2023-05-17T04:05:27;5.93;;;2.17;;
317;SDS011;146;53.448;10.228;2023-05-17T04:07:54;5.50;;;2.10;;
317;SDS011;146;53.448;10.228;2023-05-17T04:10:25;6.50;;;1.90;;
317;SDS011;146;53.448;10.228;2023-05-17T04:12:52;6.27;;;1.97;;
317;SDS011;146;53.448;10.228;2023-05-17T04:15:19;4.23;;;2.27;;
317;SDS011;146;53.448;10.228;2023-05-17T04:17:46;8.17;;;2.37;;
317;SDS011;146;53.448;10.228;2023-05-17T04:20:13;6.37;;;2.57;;
317;SDS011;146;53.448;10.228;2023-05-17T04:22:39;6.87;;;2.10;;
317;SDS011;146;53.448;10.228;2023-05-17T04:25:13;5.60;;;1.90;;
317;SDS011;146;53.448;10.228;2023-05-17T04:27:52;6.07;;;2.53;;
317;SDS011;146;53.448;10.228;2023-05-17T04:30:20;4.33;;;2.30;;
317;SDS011;146;53.448;10.228;2023-05-17T04:32:50;8.80;;;2.60;;
317;SDS011;146;53.448;10.228;2023-05-17T04:35:17;7.43;;;2.70;;
317;SDS011;146;53.448;10.228;2023-05-17T04:37:49;4.77;;;2.37;;
317;SDS011;146;53.448;10.228;2023-05-17T04:40:22;8.23;;;2.97;;
317;SDS011;146;53.448;10.228;2023-05-17T04:42:56;6.80;;;1.90;;
317;SDS011;146;53.448;10.228;2023-05-17T04:45:23;8.40;;;2.43;;
317;SDS011;146;53.448;10.228;2023-05-17T04:47:50;5.77;;;2.17;;
317;SDS011;146;53.448;10.228;2023-05-17T04:50:19;3.40;;;2.13;;
317;SDS011;146;53.448;10.228;2023-05-17T04:52:49;10.20;;;2.67;;
317;SDS011;146;53.448;10.228;2023-05-17T04:55:21;7.13;;;2.33;;
317;SDS011;146;53.448;10.228;2023-05-17T04:57:48;6.23;;;2.47;;
317;SDS011;146;53.448;10.228;2023-05-17T05:00:19;3.97;;;1.90;;
317;SDS011;146;53.448;10.228;2023-05-17T05:02:47;6.03;;;2.00;;
317;SDS011;146;53.448;10.228;2023-05-17T05:05:18;7.07;;;2.23;;
317;SDS011;146;53.448;10.228;2023-05-17T05:07:54;4.43;;;2.20;;
317;SDS011;146;53.448;10.228;2023-05-17T05:10:23;7.30;;;1.80;;
317;SDS011;146;53.448;10.228;2023-05-17T05:12:52;4.63;;;2.07;;
317;SDS011;146;53.448;10.228;2023-05-17T05:15:20;6.40;;;2.17;;
317;SDS011;146;53.448;10.228;2023-05-17T05:17:50;4.93;;;1.57;;
317;SDS011;146;53.448;10.228;2023-05-17T05:20:20;3.67;;;1.80;;
317;SDS011;146;53.448;10.228;2023-05-17T05:22:46;8.70;;;2.50;;
317;SDS011;146;53.448;10.228;2023-05-17T05:25:17;2.93;;;2.00;;
317;SDS011;146;53.448;10.228;2023-05-17T05:27:47;12.57;;;3.00;;
317;SDS011;146;53.448;10.228;2023-05-17T05:30:22;6.27;;;3.13;;
317;SDS011;146;53.448;10.228;2023-05-17T05:32:49;9.13;;;2.53;;
317;SDS011;146;53.448;10.228;2023-05-17T05:35:19;7.07;;;2.60;;
317;SDS011;146;53.448;10.228;2023-05-17T05:37:56;5.77;;;1.93;;
317;SDS011;146;53.448;10.228;2023-05-17T05:40:25;4.00;;;3.00;;
317;SDS011;146;53.448;10.228;2023-05-17T05:42:52;6.53;;;2.27;;
317;SDS011;146;53.448;10.228;2023-05-17T05:45:26;5.23;;;2.37;;
317;SDS011;146;53.448;10.228;2023-05-17T05:47:54;6.30;;;2.53;;
317;SDS011;146;53.448;10.228;2023-05-17T05:50:29;9.03;;;2.23;;
317;SDS011;146;53.448;10.228;2023-05-17T05:52:56;6.73;;;2.70;;
317;SDS011;146;53.448;10.228;2023-05-17T05:55:29;7.60;;;2.33;;
317;SDS011;146;53.448;10.228;2023-05-17T05:57:55;4.43;;;2.20;;
317;SDS011;146;53.448;10.228;2023-05-17T06:00:27;6.17;;;2.30;;
317;SDS011;146;53.448;10.228;2023-05-17T06:02:54;7.80;;;2.70;;
317;SDS011;146;53.448;10.228;2023-05-17T06:05:24;9.87;;;2.83;;
317;SDS011;146;53.448;10.228;2023-05-17T06:07:51;12.17;;;2.73;;
317;SDS011;146;53.448;10.228;2023-05-17T06:10:24;5.57;;;2.20;;
317;SDS011;146;53.448;10.228;2023-05-17T06:12:51;14.33;;;3.83;;
317;SDS011;146;53.448;10.228;2023-05-17T06:15:18;5.10;;;2.53;;
317;SDS011;146;53.448;10.228;2023-05-17T06:17:53;6.10;;;2.50;;
317;SDS011;146;53.448;10.228;2023-05-17T06:20:26;9.57;;;3.53;;
317;SDS011;146;53.448;10.228;2023-05-17T06:22:55;5.37;;;1.90;;
317;SDS011;146;53.448;10.228;2023-05-17T06:25:22;8.20;;;2.47;;
317;SDS011;146;53.448;10.228;2023-05-17T06:27:55;3.90;;;2.10;;
317;SDS011;146;53.448;10.228;2023-05-17T06:30:24;8.33;;;2.30;;
317;SDS011;146;53.448;10.228;2023-05-17T06:33:00;4.30;;;2.23;;
317;SDS011;146;53.448;10.228;2023-05-17T06:35:27;5.17;;;2.03;;
317;SDS011;146;53.448;10.228;2023-05-17T06:37:54;7.43;;;2.07;;
317;SDS011;146;53.448;10.228;2023-05-17T06:40:25;4.70;;;1.93;;
317;SDS011;146;53.448;10.228;2023-05-17T06:42:52;2.80;;;2.10;;
317;SDS011;146;53.448;10.228;2023-05-17T06:45:18;4.93;;;2.53;;
317;SDS011;146;53.448;10.228;2023-05-17T06:47:45;5.90;;;2.20;;
317;SDS011;146;53.448;10.228;2023-05-17T06:50:17;3.40;;;1.73;;
317;SDS011;146;53.448;10.228;2023-05-17T06:52:50;3.37;;;1.90;;
317;SDS011;146;53.448;10.228;2023-05-17T06:55:16;6.80;;;2.23;;
317;SDS011;146;53.448;10.228;2023-05-17T06:57:55;2.93;;;1.60;;
317;SDS011;146;53.448;10.228;2023-05-17T07:00:24;4.10;;;1.83;;
317;SDS011;146;53.448;10.228;2023-05-17T07:02:51;4.33;;;2.03;;
317;SDS011;146;53.448;10.228;2023-05-17T07:05:22;4.90;;;1.77;;
317;SDS011;146;53.448;10.228;2023-05-17T07:07:49;9.70;;;2.00;;
317;SDS011;146;53.448;10.228;2023-05-17T07:10:33;2.50;;;1.73;;
317;SDS011;146;53.448;10.228;2023-05-17T07:13:07;3.50;;;1.73;;
317;SDS011;146;53.448;10.228;2023-05-17T07:15:39;2.10;;;1.50;;
317;SDS011;146;53.448;10.228;2023-05-17T07:18:15;5.13;;;1.90;;
317;SDS011;146;53.448;10.228;2023-05-17T07:20:44;2.70;;;2.17;;
317;SDS011;146;53.448;10.228;2023-05-17T07:23:13;5.30;;;1.97;;
317;SDS011;146;53.448;10.228;2023-05-17T07:25:40;3.77;;;1.20;;
317;SDS011;146;53.448;10.228;2023-05-17T07:28:07;6.80;;;2.23;;
317;SDS011;146;53.448;10.228;2023-05-17T07:30:34;3.20;;;1.60;;
317;SDS011;146;53.448;10.228;2023-05-17T07:33:01;5.13;;;1.87;;
317;SDS011;146;53.448;10.228;2023-05-17T07:35:27;4.90;;;1.90;;
317;SDS011;146;53.448;10.228;2023-05-17T07:37:56;3.17;;;1.47;;
317;SDS011;146;53.448;10.228;2023-05-17T07:40:26;4.70;;;1.43;;
317;SDS011;146;53.448;10.228;2023-05-17T07:42:53;5.40;;;1.60;;
317;SDS011;146;53.448;10.228;2023-05-17T07:45:20;4.50;;;1.70;;
317;SDS011;146;53.448;10.228;2023-05-17T07:47:46;8.70;;;1.93;;
317;SDS011;146;53.448;10.228;2023-05-17T07:50:21;4.83;;;2.50;;
317;SDS011;146;53.448;10.228;2023-05-17T07:52:52;3.30;;;1.40;;
317;SDS011;146;53.448;10.228;2023-05-17T07:55:22;4.03;;;1.70;;
317;SDS011;146;53.448;10.228;2023-05-17T07:57:52;3.97;;;2.53;;
317;SDS011;146;53.448;10.228;2023-05-17T08:00:25;7.20;;;1.60;;
317;SDS011;146;53.448;10.228;2023-05-17T08:02:55;5.67;;;2.03;;
317;SDS011;146;53.448;10.228;2023-05-17T08:05:22;7.27;;;1.77;;
317;SDS011;146;53.448;10.228;2023-05-17T08:07:49;5.93;;;2.40;;
317;SDS011;146;53.448;10.228;2023-05-17T08:10:16;3.70;;;2.00;;
317;SDS011;146;53.448;10.228;2023-05-17T08:12:44;4.33;;;2.07;;
317;SDS011;146;53.448;10.228;2023-05-17T08:15:11;4.27;;;1.90;;
317;SDS011;146;53.448;10.228;2023-05-17T08:17:38;5.23;;;2.10;;
317;SDS011;146;53.448;10.228;2023-05-17T08:20:05;12.77;;;2.23;;
317;SDS011;146;53.448;10.228;2023-05-17T08:22:36;4.67;;;1.67;;
317;SDS011;146;53.448;10.228;2023-05-17T08:28:06;4.30;;;2.00;;
317;SDS011;146;53.448;10.228;2023-05-17T08:30:36;3.93;;;1.70;;
317;SDS011;146;53.448;10.228;2023-05-17T08:33:17;5.20;;;2.03;;
317;SDS011;146;53.448;10.228;2023-05-17T08:35:48;6.33;;;1.70;;
317;SDS011;146;53.448;10.228;2023-05-17T08:38:16;5.10;;;1.73;;
317;SDS011;146;53.448;10.228;2023-05-17T08:40:51;9.03;;;2.53;;
317;SDS011;146;53.448;10.228;2023-05-17T08:47:00;2.27;;;1.30;;
317;SDS011;146;53.448;10.228;2023-05-17T08:49:34;4.03;;;2.10;;
317;SDS011;146;53.448;10.228;2023-05-17T08:52:13;4.87;;;2.20;;
317;SDS011;146;53.448;10.228;2023-05-17T08:54:46;11.07;;;2.60;;
317;SDS011;146;53.448;10.228;2023-05-17T08:57:13;6.83;;;1.77;;
317;SDS011;146;53.448;10.228;2023-05-17T09:00:08;4.60;;;1.70;;
317;SDS011;146;53.448;10.228;2023-05-17T09:02:48;2.80;;;1.93;;
317;SDS011;146;53.448;10.228;2023-05-17T09:05:16;5.83;;;2.57;;
317;SDS011;146;53.448;10.228;2023-05-17T09:07:43;4.00;;;2.13;;
317;SDS011;146;53.448;10.228;2023-05-17T09:10:16;4.43;;;1.90;;
317;SDS011;146;53.448;10.228;2023-05-17T09:12:44;3.73;;;2.00;;
317;SDS011;146;53.448;10.228;2023-05-17T09:15:16;5.13;;;2.43;;
317;SDS011;146;53.448;10.228;2023-05-17T09:17:49;8.10;;;1.77;;
317;SDS011;146;53.448;10.228;2023-05-17T09:20:20;3.30;;;2.00;;
317;SDS011;146;53.448;10.228;2023-05-17T09:23:29;3.27;;;2.97;;
317;SDS011;146;53.448;10.228;2023-05-17T09:32:25;8.30;;;1.63;;
317;SDS011;146;53.448;10.228;2023-05-17T09:35:02;5.23;;;3.10;;
317;SDS011;146;53.448;10.228;2023-05-17T09:41:09;6.93;;;2.33;;
317;SDS011;146;53.448;10.228;2023-05-17T09:43:45;6.97;;;1.93;;
317;SDS011;146;53.448;10.228;2023-05-17T09:46:15;2.87;;;1.90;;
317;SDS011;146;53.448;10.228;2023-05-17T09:48:45;4.37;;;1.70;;
317;SDS011;146;53.448;10.228;2023-05-17T09:51:30;7.03;;;1.90;;
317;SDS011;146;53.448;10.228;2023-05-17T09:53:58;5.03;;;1.60;;
317;SDS011;146;53.448;10.228;2023-05-17T09:56:26;5.77;;;2.03;;
317;SDS011;146;53.448;10.228;2023-05-17T09:58:55;6.17;;;1.87;;
317;SDS011;146;53.448;10.228;2023-05-17T10:01:25;5.67;;;1.80;;
317;SDS011;146;53.448;10.228;2023-05-17T10:03:59;4.03;;;1.73;;
317;SDS011;146;53.448;10.228;2023-05-17T10:06:27;3.83;;;2.17;;
317;SDS011;146;53.448;10.228;2023-05-17T10:09:00;6.00;;;1.90;;
317;SDS011;146;53.448;10.228;2023-05-17T10:11:34;4.63;;;2.17;;
317;SDS011;146;53.448;10.228;2023-05-17T10:14:06;6.83;;;2.20;;
317;SDS011;146;53.448;10.228;2023-05-17T10:16:48;4.37;;;2.00;;
317;SDS011;146;53.448;10.228;2023-05-17T10:19:17;4.33;;;2.60;;
317;SDS011;146;53.448;10.228;2023-05-17T10:21:46;6.67;;;2.60;;
317;SDS011;146;53.448;10.228;2023-05-17T10:24:15;5.73;;;1.97;;
317;SDS011;146;53.448;10.228;2023-05-17T10:26:42;5.50;;;2.30;;
317;SDS011;146;53.448;10.228;2023-05-17T10:29:12;4.03;;;2.00;;
317;SDS011;146;53.448;10.228;2023-05-17T10:31:41;7.20;;;2.63;;
317;SDS011;146;53.448;10.228;2023-05-17T10:34:11;7.37;;;2.67;;
317;SDS011;146;53.448;10.228;2023-05-17T10:36:45;3.40;;;1.70;;
317;SDS011;146;53.448;10.228;2023-05-17T10:39:14;5.17;;;1.87;;
317;SDS011;146;53.448;10.228;2023-05-17T10:41:44;6.30;;;2.00;;
317;SDS011;146;53.448;10.228;2023-05-17T10:44:13;3.83;;;1.80;;
317;SDS011;146;53.448;10.228;2023-05-17T10:52:59;3.87;;;1.47;;
317;SDS011;146;53.448;10.228;2023-05-17T10:55:35;6.77;;;1.87;;
317;SDS011;146;53.448;10.228;2023-05-17T10:58:08;3.90;;;1.67;;
317;SDS011;146;53.448;10.228;2023-05-17T11:00:41;7.40;;;1.40;;
317;SDS011;146;53.448;10.228;2023-05-17T11:03:12;4.70;;;2.23;;
317;SDS011;146;53.448;10.228;2023-05-17T11:05:41;4.70;;;1.40;;
317;SDS011;146;53.448;10.228;2023-05-17T11:08:22;4.17;;;1.70;;
317;SDS011;146;53.448;10.228;2023-05-17T11:11:08;2.87;;;1.30;;
317;SDS011;146;53.448;10.228;2023-05-17T11:13:46;2.50;;;1.50;;
317;SDS011;146;53.448;10.228;2023-05-17T11:16:19;4.53;;;1.67;;
317;SDS011;146;53.448;10.228;2023-05-17T11:18:51;7.47;;;2.63;;
317;SDS011;146;53.448;10.228;2023-05-17T11:21:20;5.40;;;2.23;;
317;SDS011;146;53.448;10.228;2023-05-17T11:23:52;5.37;;;2.20;;
317;SDS011;146;53.448;10.228;2023-05-17T11:26:33;6.23;;;1.90;;
317;SDS011;146;53.448;10.228;2023-05-17T11:29:06;6.03;;;1.80;;
317;SDS011;146;53.448;10.228;2023-05-17T11:31:41;2.67;;;1.87;;
317;SDS011;146;53.448;10.228;2023-05-17T11:34:11;3.70;;;1.70;;
317;SDS011;146;53.448;10.228;2023-05-17T11:36:48;5.30;;;1.80;;
317;SDS011;146;53.448;10.228;2023-05-17T11:39:18;4.07;;;1.40;;
317;SDS011;146;53.448;10.228;2023-05-17T11:41:49;5.77;;;2.37;;
317;SDS011;146;53.448;10.228;2023-05-17T11:44:23;5.70;;;2.07;;
317;SDS011;146;53.448;10.228;2023-05-17T11:47:00;4.70;;;1.77;;
317;SDS011;146;53.448;10.228;2023-05-17T11:49:29;2.13;;;1.83;;
317;SDS011;146;53.448;10.228;2023-05-17T11:51:57;4.23;;;1.87;;
317;SDS011;146;53.448;10.228;2023-05-17T11:54:25;5.60;;;1.70;;
317;SDS011;146;53.448;10.228;2023-05-17T11:56:55;3.83;;;1.63;;
317;SDS011;146;53.448;10.228;2023-05-17T11:59:23;1.40;;;1.23;;
317;SDS011;146;53.448;10.228;2023-05-17T12:01:53;3.90;;;1.17;;
317;SDS011;146;53.448;10.228;2023-05-17T12:04:24;2.80;;;1.43;;
317;SDS011;146;53.448;10.228;2023-05-17T12:06:54;2.43;;;1.30;;
317;SDS011;146;53.448;10.228;2023-05-17T12:09:27;2.37;;;1.57;;
317;SDS011;146;53.448;10.228;2023-05-17T12:11:54;1.77;;;1.67;;
317;SDS011;146;53.448;10.228;2023-05-17T12:14:22;2.60;;;1.30;;
317;SDS011;146;53.448;10.228;2023-05-17T12:16:52;5.47;;;1.70;;
317;SDS011;146;53.448;10.228;2023-05-17T12:19:21;3.27;;;2.50;;
317;SDS011;146;53.448;10.228;2023-05-17T12:21:51;4.17;;;2.13;;
317;SDS011;146;53.448;10.228;2023-05-17T12:24:17;2.80;;;2.00;;
317;SDS011;146;53.448;10.228;2023-05-17T12:27:02;2.93;;;1.67;;
317;SDS011;146;53.448;10.228;2023-05-17T12:29:30;3.80;;;1.60;;
317;SDS011;146;53.448;10.228;2023-05-17T12:31:57;3.10;;;1.53;;
317;SDS011;146;53.448;10.228;2023-05-17T12:34:26;5.33;;;1.30;;
317;SDS011;146;53.448;10.228;2023-05-17T12:36:54;3.83;;;1.60;;
317;SDS011;146;53.448;10.228;2023-05-17T12:39:21;2.30;;;1.60;;
317;SDS011;146;53.448;10.228;2023-05-17T12:41:49;1.90;;;1.40;;
317;SDS011;146;53.448;10.228;2023-05-17T12:44:18;4.40;;;1.40;;
317;SDS011;146;53.448;10.228;2023-05-17T12:46:48;2.10;;;1.40;;
317;SDS011;146;53.448;10.228;2023-05-17T12:49:23;2.60;;;1.30;;
317;SDS011;146;53.448;10.228;2023-05-17T12:51:56;4.10;;;1.63;;
317;SDS011;146;53.448;10.228;2023-05-17T12:54:29;3.40;;;1.87;;
317;SDS011;146;53.448;10.228;2023-05-17T12:57:08;4.77;;;2.43;;
317;SDS011;146;53.448;10.228;2023-05-17T12:59:51;3.60;;;1.90;;
317;SDS011;146;53.448;10.228;2023-05-17T13:02:18;3.10;;;1.57;;
317;SDS011;146;53.448;10.228;2023-05-17T13:04:45;1.40;;;1.30;;
317;SDS011;146;53.448;10.228;2023-05-17T13:07:20;5.33;;;1.40;;
317;SDS011;146;53.448;10.228;2023-05-17T13:09:51;3.33;;;1.60;;
317;SDS011;146;53.448;10.228;2023-05-17T13:12:24;2.50;;;1.83;;
317;SDS011;146;53.448;10.228;2023-05-17T13:14:55;7.70;;;2.00;;
317;SDS011;146;53.448;10.228;2023-05-17T13:17:25;3.50;;;1.73;;
317;SDS011;146;53.448;10.228;2023-05-17T13:19:59;3.07;;;1.70;;
317;SDS011;146;53.448;10.228;2023-05-17T13:22:26;3.50;;;1.27;;
317;SDS011;146;53.448;10.228;2023-05-17T13:24:55;2.70;;;1.50;;
317;SDS011;146;53.448;10.228;2023-05-17T13:27:25;3.77;;;2.03;;
317;SDS011;146;53.448;10.228;2023-05-17T13:29:55;3.97;;;1.70;;
317;SDS011;146;53.448;10.228;2023-05-17T13:32:27;3.30;;;1.40;;
317;SDS011;146;53.448;10.228;2023-05-17T13:34:58;4.53;;;3.00;;
317;SDS011;146;53.448;10.228;2023-05-17T13:37:26;5.97;;;3.00;;
317;SDS011;146;53.448;10.228;2023-05-17T13:39:55;4.37;;;1.87;;
317;SDS011;146;53.448;10.228;2023-05-17T13:42:22;3.40;;;1.70;;
317;SDS011;146;53.448;10.228;2023-05-17T13:44:57;2.70;;;1.67;;
317;SDS011;146;53.448;10.228;2023-05-17T13:47:25;2.53;;;1.60;;
317;SDS011;146;53.448;10.228;2023-05-17T13:50:00;1.80;;;1.10;;
317;SDS011;146;53.448;10.228;2023-05-17T13:52:28;6.07;;;1.97;;
317;SDS011;146;53.448;10.228;2023-05-17T13:54:56;2.50;;;2.00;;
317;SDS011;146;53.448;10.228;2023-05-17T13:57:28;4.83;;;1.57;;
317;SDS011;146;53.448;10.228;2023-05-17T13:59:56;2.60;;;1.40;;
317;SDS011;146;53.448;10.228;2023-05-17T14:02:24;7.90;;;1.90;;
317;SDS011;146;53.448;10.228;2023-05-17T14:04:54;3.10;;;2.50;;
317;SDS011;146;53.448;10.228;2023-05-17T14:07:23;2.00;;;1.30;;
317;SDS011;146;53.448;10.228;2023-05-17T14:09:50;2.83;;;1.57;;
317;SDS011;146;53.448;10.228;2023-05-17T14:12:23;2.30;;;1.77;;
317;SDS011;146;53.448;10.228;2023-05-17T14:14:57;3.40;;;1.70;;
317;SDS011;146;53.448;10.228;2023-05-17T14:17:24;6.40;;;1.63;;
317;SDS011;146;53.448;10.228;2023-05-17T14:19:54;3.80;;;1.63;;
317;SDS011;146;53.448;10.228;2023-05-17T14:22:26;4.40;;;3.13;;
317;SDS011;146;53.448;10.228;2023-05-17T14:24:53;3.77;;;2.03;;
317;SDS011;146;53.448;10.228;2023-05-17T14:27:22;4.30;;;2.37;;
317;SDS011;146;53.448;10.228;2023-05-17T14:29:49;5.17;;;2.37;;
317;SDS011;146;53.448;10.228;2023-05-17T14:32:23;4.30;;;1.93;;
317;SDS011;146;53.448;10.228;2023-05-17T14:34:56;5.73;;;2.10;;
317;SDS011;146;53.448;10.228;2023-05-17T14:37:25;4.40;;;1.70;;
317;SDS011;146;53.448;10.228;2023-05-17T14:39:59;3.60;;;1.80;;
317;SDS011;146;53.448;10.228;2023-05-17T14:42:26;4.10;;;2.23;;
317;SDS011;146;53.448;10.228;2023-05-17T14:44:52;6.07;;;2.03;;
317;SDS011;146;53.448;10.228;2023-05-17T14:47:24;5.27;;;1.90;;
317;SDS011;146;53.448;10.228;2023-05-17T14:49:53;3.17;;;1.70;;
317;SDS011;146;53.448;10.228;2023-05-17T14:52:24;3.60;;;1.83;;
317;SDS011;146;53.448;10.228;2023-05-17T14:54:56;6.77;;;2.27;;
317;SDS011;146;53.448;10.228;2023-05-17T14:57:26;3.30;;;1.97;;
317;SDS011;146;53.448;10.228;2023-05-17T14:59:58;6.83;;;2.83;;
317;SDS011;146;53.448;10.228;2023-05-17T15:02:27;4.30;;;2.20;;
317;SDS011;146;53.448;10.228;2023-05-17T15:04:53;2.80;;;2.27;;
317;SDS011;146;53.448;10.228;2023-05-17T15:07:23;7.93;;;2.10;;
317;SDS011;146;53.448;10.228;2023-05-17T15:09:56;4.20;;;2.20;;
317;SDS011;146;53.448;10.228;2023-05-17T15:12:26;6.47;;;2.17;;
317;SDS011;146;53.448;10.228;2023-05-17T15:14:55;3.03;;;2.00;;
317;SDS011;146;53.448;10.228;2023-05-17T15:17:26;6.23;;;2.20;;
317;SDS011;146;53.448;10.228;2023-05-17T15:19:53;4.43;;;2.13;;
317;SDS011;146;53.448;10.228;2023-05-17T15:22:23;4.73;;;2.30;;
317;SDS011;146;53.448;10.228;2023-05-17T15:24:54;6.37;;;1.70;;
317;SDS011;146;53.448;10.228;2023-05-17T15:27:31;3.90;;;2.37;;
317;SDS011;146;53.448;10.228;2023-05-17T15:30:01;3.37;;;1.60;;
317;SDS011;146;53.448;10.228;2023-05-17T15:32:29;4.40;;;1.33;;
317;SDS011;146;53.448;10.228;2023-05-17T15:34:56;3.70;;;1.70;;
317;SDS011;146;53.448;10.228;2023-05-17T15:37:23;3.27;;;1.87;;
317;SDS011;146;53.448;10.228;2023-05-17T15:39:49;6.17;;;2.00;;
317;SDS011;146;53.448;10.228;2023-05-17T15:42:19;4.17;;;1.83;;
317;SDS011;146;53.448;10.228;2023-05-17T15:44:49;3.40;;;1.63;;
317;SDS011;146;53.448;10.228;2023-05-17T15:47:22;4.37;;;2.10;;
317;SDS011;146;53.448;10.228;2023-05-17T15:49:57;9.23;;;2.70;;
317;SDS011;146;53.448;10.228;2023-05-17T15:52:24;5.07;;;2.13;;
317;SDS011;146;53.448;10.228;2023-05-17T15:54:54;4.67;;;2.07;;
317;SDS011;146;53.448;10.228;2023-05-17T15:57:26;8.90;;;2.57;;
317;SDS011;146;53.448;10.228;2023-05-17T15:59:54;3.43;;;2.00;;
317;SDS011;146;53.448;10.228;2023-05-17T16:02:24;2.83;;;1.90;;
317;SDS011;146;53.448;10.228;2023-05-17T16:04:52;4.20;;;2.17;;
317;SDS011;146;53.448;10.228;2023-05-17T16:07:21;5.03;;;2.20;;
317;SDS011;146;53.448;10.228;2023-05-17T16:09:53;4.20;;;2.30;;
317;SDS011;146;53.448;10.228;2023-05-17T16:12:27;3.20;;;2.27;;
317;SDS011;146;53.448;10.228;2023-05-17T16:14:53;7.50;;;2.90;;